Pottsville, Texas
Current Conditions -  °F | °C
As of 6:15 PM on Sunday 25 Jan 2015 (Local Time) from KMNZ Reporting Station
Clear Clear  
Wind Chill: 57°   Ceiling: Unl
Heat Index: 57°   Visibility: 10mi
Dew Point: 28°   Wind: 8mph
Humidity: 33%   Direction: 330°NNW
Pressure: 30.15"   Gusts: NA
Location:  31.67°N, 98.33°W
Report Text: KMNZ 260015Z AUTO 33007KT 290V350 10SM CLR 14/M02 A3015 RMK AO2 T01391023
Loading
Personal Weather Stations






























Interactive Weather Map New forecast layout! Learn more

10-Day Weather Forecast

Advertisements
Track Severe Weather on mobile